Bruk link Alternativ webside om du vil se statistikk,rapport,graf,analyse og mye mer.

Vårt webkamera more information My webcam


webkamera på Randaberg more information webcam on Randaberg


Nedbørsradar  rain snow radar


Besøk vår andre værside:

Alternativ webside

Alternativ mobil

Regnskvett RandabergWebsite of another weatherstation



Ikke nødvendig med spesiell oppmerksomhet.    Det er ingen advarsler

Nære METAR rapporter

   
ENHD - Haugesund
oppdatert: 27-02-2021 10:50
Ikke oppdatert
For det meste skyet  
For det meste skyet  
   Vind: SSØ 2.6 m/s
Vind: SSØ 2.6 m/s
Temperatur: 6°C
Wind Chill: 4°C
Duggpunkt: 6°C
Fuktighet: 100%
Barometer: 1034 hPa
Skyer: For det meste skyet
Sikt: 9 km
Skydetaljer: For det meste skyet 91.4 m,
For det meste skyet 213.4 m
ENHD 270950Z 16005KT 9000 BKN003 BKN007 06/06 Q1034
ENZV - Randaberg
oppdatert: 27-02-2021 18:50
For det meste skyet  
For det meste skyet  
   Vind: varierer 1 m/s
Vind: varierer 1 m/s
Temperatur: 6°C
Duggpunkt: 6°C
Fuktighet: 100%
Barometer: 1037 hPa
Skyer: For det meste skyet
Sikt: 6 km
Skydetaljer: få skyer 61 m,
For det meste skyet 579.1 m
ENZV 271750Z VRB02KT 6000 FEW002 BKN019 06/06 Q1037 NOSIG
ENBR - Bergen
oppdatert: 27-02-2021 18:50
For det meste skyet  
For det meste skyet  
   Vind: Sør 2.1 m/s
Vind: Sør 2.1 m/s
Temperatur: 6°C
Wind Chill: 4°C
Duggpunkt: 6°C
Fuktighet: 100%
Barometer: 1036 hPa
Skyer: For det meste skyet
Sikt: More than 10 km
Skydetaljer: få skyer 61 m,
Delvis Skyet 152.4 m,
For det meste skyet 213.4 m
ENBR 271750Z 17004KT 9999 FEW002 SCT005 BKN007 06/06 Q1036 TEMPO 4000 BR SCT007 BKN015 RMK WIND 1200FT 27009KT
ENCN - Kristiansand
oppdatert: 27-02-2021 18:50
Klart  
Klart  
   Vind: NV 2.1 m/s
Vind: NV 2.1 m/s
Temperatur: 8°C
Wind Chill: 7°C
Duggpunkt: 2°C
Fuktighet: 66%
Barometer: 1034 hPa
Skyer: Klart
Sikt: More than 10 km
Skydetaljer: Klart
ENCN 271750Z AUTO 31004KT 280V350 9999 NCD 08/02 Q1034
ENGM - Oslo
oppdatert: 27-02-2021 18:50
Klart  
Klart  
   Vind: SSV 2.6 m/s
Vind: SSV 2.6 m/s
Temperatur: 4°C
Wind Chill: 2°C
Duggpunkt: -1°C
Fuktighet: 70%
Barometer: 1028 hPa
Sikt: More than 10 km
Skydetaljer: Klart
ENGM 271750Z 21005KT CAVOK 04/M01 Q1028 NOSIG
ENVA - Trondheim
oppdatert: 27-02-2021 18:50
Lett regn, For det meste skyet  
Lett regn, For det meste skyet  
   Vind: VSV 8.2 m/s
Vind: VSV 8.2 m/s
Temperatur: 6°C
Wind Chill: 2°C
Duggpunkt: 4°C
Fuktighet: 87%
Barometer: 1024 hPa
Skyer: For det meste skyet
Sikt: 8 km
Skydetaljer: For det meste skyet 670.6 m
ENVA 271750Z 25016KT 8000 -RA BKN022 06/04 Q1024 RMK WIND 670FT 26018G29KT

Script utviklet av  Saratoga-weather.org Tilrettelagt for malen av  Weerstation Leuven

Du finner vår vær info også på:

European Weather Network

WeatherCloud

Weather Underground

Citizen Weather Observer Program (CWOP)

Utstyr vi bruker:

Værstsjon
Oregon scientific WMR 300

Værprogram
Meteobridge

Oregon scientific WMR 300

Meteobridge